Bookmark and Share
Track history (hours):
 

Mustafa Dayi

Last reported at 2014-Apr-23 12:20 UTC. Time now 2014-Apr-24 06:10 UTC.
Position N 40°27' E 026°48'.

Length 183 m; draft 8.6 m.

Type: Ship (hazmat cat A). MMSI: 271042433.

NotesDate/timePositionNaut miles runAvg speedWind from/ knotsBaromVisibWave heightAir tempDewpointWater temp
2014-Apr-23 12:20N 40°27' E 026°48'2910.4
2014-Apr-23 09:32N 40°36' E 027°25'  
2014-Apr-20 21:07N 40°22' E 026°40'1911.8
2014-Apr-20 19:33N 40°09' E 026°23'2812.2
2014-Apr-20 17:15N 39°52' E 025°54'1014.1
2014-Apr-20 16:32N 39°43' E 025°50'12914.3
2014-Apr-20 07:31N 37°34' E 025°54'1313.1
2014-Apr-20 06:33N 37°23' E 026°02'1714.2
2014-Apr-20 05:23N 37°13' E 026°19'4013.2
2014-Apr-20 02:21N 36°39' E 026°45'33013.9
2014-Apr-19 02:34N 31°40' E 029°34'23 0.9
2014-Apr-18 01:31N 31°21' E 029°49'2512.5
2014-Apr-17 23:29N 31°46' E 029°56'25213.7
2014-Apr-17 05:06N 35°23' E 032°31'1014.2
2014-Apr-17 04:24N 35°28' E 032°41'1213.8
2014-Apr-17 03:32N 35°35' E 032°53'23 0.8
2014-Apr-15 21:29N 35°58' E 032°53'32912.7
2014-Apr-14 19:33N 36°10' E 026°06'1313.2
2014-Apr-14 18:34N 36°11' E 025°50'1313.0
2014-Apr-14 17:33N 36°11' E 025°34'1313.1
2014-Apr-14 16:34N 36°10' E 025°18'1413.7
2014-Apr-14 15:34N 36°11' E 025°01'1413.5
2014-Apr-14 14:34N 36°12' E 024°44'1313.2
2014-Apr-14 13:33N 36°13' E 024°28'2813.3
2014-Apr-14 11:30N 36°15' E 023°54'1313.4
2014-Apr-14 10:32N 36°18' E 023°38'  

Dump ship's entire track history

sailing weather and tide predictions

Mustafa Dayi — TCZF2 — position and weather